Terminal Aerodrome Forecast
Issued by NWS Cleveland, OH

Home | Current Version | Previous Version | Graphics & Text | Print | Product List | Glossary Off
Versions: 1 2 3 4 5 6 7 8 9 10 11 12 13 14 15 16 17 18 19 20 21

000
FTUS41 KCLE 140559 CCA
TAFTOL
TAF COR
KTOL 140559Z 1406/1506 35015KT P6SM VCSH SCT015 OVC035
      TEMPO 1406/1408 3SM -SN BKN015
     FM140900 35012KT P6SM SCT015 OVC035
     FM141600 32008KT P6SM SCT035
     FM142200 28004KT P6SM SCT120 BKN250=

USA.gov is the U.S. government's official web portal to all federal, state and local government web resources and services.